This is the latest recevied weather packets stored in our database for station/object N1SU-13. If no packets are shown the sender has not sent any weather packets the latest 10 day(s).
| Time | Temp. | Humidity | Pressure | Rain* | Wind** | Luminosity | Snow |
|---|---|---|---|---|---|---|---|
| 1777949643 | 27.78° C | 38% | 1006.7 hPa | - | - | - | - |
| 1777949007 | 28.33° C | 36% | 1006.6 hPa | - | - | - | - |
| 1777948353 | 29.44° C | 33% | 1006.5 hPa | - | - | - | - |
| 1777947758 | 29.44° C | 31% | 1006.5 hPa | - | - | - | - |
| 1777947139 | 29.44° C | 31% | 1006.5 hPa | - | - | - | - |
| 1777946578 | 29.44° C | 31% | 1006.6 hPa | - | - | - | - |
| 1777945903 | 28.89° C | 32% | 1006.7 hPa | - | - | - | - |
| 1777945315 | 28.33° C | 31% | 1006.7 hPa | - | - | - | - |
| 1777944647 | 27.78° C | 31% | 1006.7 hPa | - | - | - | - |
| 1777944032 | 27.78° C | 33% | 1006.8 hPa | - | - | - | - |
| 1777943347 | 26.67° C | 34% | 1007.1 hPa | - | - | - | - |
| 1777942660 | 26.67° C | 33% | 1007.1 hPa | - | - | - | - |
| 1777942069 | 26.11° C | 34% | 1007.2 hPa | - | - | - | - |
| 1777941496 | 26.67° C | 33% | 1007.1 hPa | - | - | - | - |
| 1777940820 | 26.11° C | 33% | 1007.1 hPa | - | - | - | - |
| 1777940123 | 26.11° C | 33% | 1007.2 hPa | - | - | - | - |
| 1777939549 | 25.56° C | 34% | 1007.1 hPa | - | - | - | - |
| 1777938915 | 25.56° C | 35% | 1007.1 hPa | - | - | - | - |
| 1777938341 | 25.56° C | 34% | 1007.3 hPa | - | - | - | - |
| 1777937643 | 25.56° C | 34% | 1007.4 hPa | - | - | - | - |
| 1777937074 | 25.56° C | 35% | 1007.3 hPa | - | - | - | - |
| 1777936469 | 25.56° C | 36% | 1007.4 hPa | - | - | - | - |
| 1777935824 | 25.56° C | 35% | 1007.4 hPa | - | - | - | - |
| 1777935263 | 25° C | 36% | 1007.6 hPa | - | - | - | - |
| 1777934650 | 25° C | 37% | 1007.7 hPa | - | - | - | - |
* Rain since midnight (hover to see other rain measurements)
** Current wind speed in m/s (hover to see current wind gust speed)